Missouri River (Missouri), Glasgow (06906500)

StateMissouriLatestUnknown (111000 cfs)
RiverMissouri RiverRatingObservedEstimated
Updated2021-04-10 22:30 (1 hour ago)Flood - The river is flooding. Obstacles can be treacherous or deadly. The river should be avoided at this stage for casual trips and definitely for the inexperienced. Trips should be attempted only with protective gear and equipment.Flood(none)(none)
Discharge111000 cfs (median: 61500 cfs)High - The river is high and potentially dangerous, especially for the young and / or inexperienced. Normal stream obstacles are sometimes difficult to navigate. Extended distances can be attempted, but canoe travel may not be advisable.High(none)(none)
Height20.19 feetGood - Conditions are ideal for a canoe or kayak. Boats typically will drag on fewer than one-quarter of riffles, if at all, and portages are unnecessary or rare. Normal float lengths can be attempted without a problem.Good(none)(none)
TrendRising (rising over 24 hours)Low - River is low but can still be floated. Some riffles are okay but most come with significant dragging and might need a portage. Float lengths should be reduced to accommodate low flow, dragging, and portages.Low(none)(none)
USGSExternal icon USGS Site (External icon Google Maps)Poor - River is too low to float comfortably. Most or all riffles will drag or must be portaged and some obstacles (such as slick shelf rock) cause undue problems. Avoid the river at this stage for casual paddling trips.Poor(none)(none)

Trending Data

Plot Image

Trips for Missouri River (Missouri), Glasgow (06906500)

DateStartEndDistanceConditionDischargeHeightFishingDetails

A total of 0 rows are displayed.

Condition Descriptions

Fishing Conditions

Fish Species

Notes

Classic Trip List

The classic River Trips application is still available for use. It is updated with the new system using a data retrofit. It is no longer maintained. The original River Trips application is no longer updated (as of 1 Dec 2016) but can be checked for errors or for the condition of the data before it was converted to the new system.

Gauge Data Table

ObservationHeightDischargeMaximum
Discharge
Minimum
Discharge
Mean
Discharge
P05P10P20P25P50
(Median)
P75P80P90P95
2021-04-10 22:30 20.19 111000 150000 (2019) 34500 (2003) 72900 34700 39600 41700 43900 61500 99300 109000 145000 150000
2021-04-10 21:30 19.98 109000 150000 (2019) 34500 (2003) 72900 34700 39600 41700 43900 61500 99300 109000 145000 150000
2021-04-10 20:30 19.75 107000 150000 (2019) 34500 (2003) 72900 34700 39600 41700 43900 61500 99300 109000 145000 150000
2021-04-10 19:30 19.51 105000 150000 (2019) 34500 (2003) 72900 34700 39600 41700 43900 61500 99300 109000 145000 150000
2021-04-10 18:30 19.23 102000 150000 (2019) 34500 (2003) 72900 34700 39600 41700 43900 61500 99300 109000 145000 150000
2021-04-10 17:30 18.98 100000 150000 (2019) 34500 (2003) 72900 34700 39600 41700 43900 61500 99300 109000 145000 150000
2021-04-10 16:30 18.78 98400 150000 (2019) 34500 (2003) 72900 34700 39600 41700 43900 61500 99300 109000 145000 150000
2021-04-10 15:30 18.56 96400 150000 (2019) 34500 (2003) 72900 34700 39600 41700 43900 61500 99300 109000 145000 150000
2021-04-10 14:30 18.37 94800 150000 (2019) 34500 (2003) 72900 34700 39600 41700 43900 61500 99300 109000 145000 150000
2021-04-10 13:30 18.20 93300 150000 (2019) 34500 (2003) 72900 34700 39600 41700 43900 61500 99300 109000 145000 150000
2021-04-10 12:30 18.06 92200 150000 (2019) 34500 (2003) 72900 34700 39600 41700 43900 61500 99300 109000 145000 150000
2021-04-10 11:30 17.95 91200 150000 (2019) 34500 (2003) 72900 34700 39600 41700 43900 61500 99300 109000 145000 150000
2021-04-10 10:30 17.89 90700 150000 (2019) 34500 (2003) 72900 34700 39600 41700 43900 61500 99300 109000 145000 150000
2021-04-10 09:30 17.86 90500 150000 (2019) 34500 (2003) 72900 34700 39600 41700 43900 61500 99300 109000 145000 150000
2021-04-10 08:30 17.77 89700 150000 (2019) 34500 (2003) 72900 34700 39600 41700 43900 61500 99300 109000 145000 150000
2021-04-10 07:30 17.77 89700 150000 (2019) 34500 (2003) 72900 34700 39600 41700 43900 61500 99300 109000 145000 150000
2021-04-10 06:30 17.76 89600 150000 (2019) 34500 (2003) 72900 34700 39600 41700 43900 61500 99300 109000 145000 150000
2021-04-10 05:30 17.71 89200 150000 (2019) 34500 (2003) 72900 34700 39600 41700 43900 61500 99300 109000 145000 150000
2021-04-10 04:30 17.66 88700 150000 (2019) 34500 (2003) 72900 34700 39600 41700 43900 61500 99300 109000 145000 150000
2021-04-10 03:30 17.65 88600 150000 (2019) 34500 (2003) 72900 34700 39600 41700 43900 61500 99300 109000 145000 150000
2021-04-10 02:30 17.68 88900 150000 (2019) 34500 (2003) 72900 34700 39600 41700 43900 61500 99300 109000 145000 150000
2021-04-10 01:30 17.67 88800 150000 (2019) 34500 (2003) 72900 34700 39600 41700 43900 61500 99300 109000 145000 150000
2021-04-10 00:30 17.65 88600 150000 (2019) 34500 (2003) 72900 34700 39600 41700 43900 61500 99300 109000 145000 150000
2021-04-09 23:30 17.61 88300 169000 (2017) 34000 (2003) 72400 34200 37600 41000 44400 60100 85400 98800 151000 168000
2021-04-09 22:30 17.67 88800 169000 (2017) 34000 (2003) 72400 34200 37600 41000 44400 60100 85400 98800 151000 168000
2021-04-09 21:30 17.65 88600 169000 (2017) 34000 (2003) 72400 34200 37600 41000 44400 60100 85400 98800 151000 168000
2021-04-09 20:30 17.63 88500 169000 (2017) 34000 (2003) 72400 34200 37600 41000 44400 60100 85400 98800 151000 168000
2021-04-09 19:30 17.66 88700 169000 (2017) 34000 (2003) 72400 34200 37600 41000 44400 60100 85400 98800 151000 168000
2021-04-09 18:30 17.63 88500 169000 (2017) 34000 (2003) 72400 34200 37600 41000 44400 60100 85400 98800 151000 168000
2021-04-09 17:30 17.64 88500 169000 (2017) 34000 (2003) 72400 34200 37600 41000 44400 60100 85400 98800 151000 168000
2021-04-09 16:30 17.65 88600 169000 (2017) 34000 (2003) 72400 34200 37600 41000 44400 60100 85400 98800 151000 168000
2021-04-09 15:30 17.64 88500 169000 (2017) 34000 (2003) 72400 34200 37600 41000 44400 60100 85400 98800 151000 168000
2021-04-09 14:30 17.63 88500 169000 (2017) 34000 (2003) 72400 34200 37600 41000 44400 60100 85400 98800 151000 168000
2021-04-09 13:30 17.63 88500 169000 (2017) 34000 (2003) 72400 34200 37600 41000 44400 60100 85400 98800 151000 168000
2021-04-09 12:30 17.63 88500 169000 (2017) 34000 (2003) 72400 34200 37600 41000 44400 60100 85400 98800 151000 168000
2021-04-09 11:30 17.66 88700 169000 (2017) 34000 (2003) 72400 34200 37600 41000 44400 60100 85400 98800 151000 168000
2021-04-09 10:30 17.66 88700 169000 (2017) 34000 (2003) 72400 34200 37600 41000 44400 60100 85400 98800 151000 168000
2021-04-09 09:30 17.59 88100 169000 (2017) 34000 (2003) 72400 34200 37600 41000 44400 60100 85400 98800 151000 168000
2021-04-09 08:30 17.60 88200 169000 (2017) 34000 (2003) 72400 34200 37600 41000 44400 60100 85400 98800 151000 168000
2021-04-09 07:30 17.60 88200 169000 (2017) 34000 (2003) 72400 34200 37600 41000 44400 60100 85400 98800 151000 168000
2021-04-09 06:30 17.58 88000 169000 (2017) 34000 (2003) 72400 34200 37600 41000 44400 60100 85400 98800 151000 168000
2021-04-09 05:30 17.53 87600 169000 (2017) 34000 (2003) 72400 34200 37600 41000 44400 60100 85400 98800 151000 168000
2021-04-09 04:30 17.51 87400 169000 (2017) 34000 (2003) 72400 34200 37600 41000 44400 60100 85400 98800 151000 168000
2021-04-09 03:30 17.45 86900 169000 (2017) 34000 (2003) 72400 34200 37600 41000 44400 60100 85400 98800 151000 168000
2021-04-09 02:30 17.43 86700 169000 (2017) 34000 (2003) 72400 34200 37600 41000 44400 60100 85400 98800 151000 168000
2021-04-09 01:30 17.38 86300 169000 (2017) 34000 (2003) 72400 34200 37600 41000 44400 60100 85400 98800 151000 168000
2021-04-09 00:30 17.37 86200 169000 (2017) 34000 (2003) 72400 34200 37600 41000 44400 60100 85400 98800 151000 168000
2021-04-08 23:30 17.37 86200 186000 (2017) 33700 (2003) 73300 33900 37600 41900 42700 58000 82900 101000 157000 185000
2021-04-08 22:30 17.33 85800 186000 (2017) 33700 (2003) 73300 33900 37600 41900 42700 58000 82900 101000 157000 185000
2021-04-08 21:30 17.34 85900 186000 (2017) 33700 (2003) 73300 33900 37600 41900 42700 58000 82900 101000 157000 185000
2021-04-08 20:30 17.28 85400 186000 (2017) 33700 (2003) 73300 33900 37600 41900 42700 58000 82900 101000 157000 185000
2021-04-08 19:30 17.27 85300 186000 (2017) 33700 (2003) 73300 33900 37600 41900 42700 58000 82900 101000 157000 185000
2021-04-08 18:30 17.22 84900 186000 (2017) 33700 (2003) 73300 33900 37600 41900 42700 58000 82900 101000 157000 185000
2021-04-08 17:30 17.22 84900 186000 (2017) 33700 (2003) 73300 33900 37600 41900 42700 58000 82900 101000 157000 185000
2021-04-08 16:30 17.19 84600 186000 (2017) 33700 (2003) 73300 33900 37600 41900 42700 58000 82900 101000 157000 185000
2021-04-08 15:30 17.13 84100 186000 (2017) 33700 (2003) 73300 33900 37600 41900 42700 58000 82900 101000 157000 185000
2021-04-08 14:30 17.09 83800 186000 (2017) 33700 (2003) 73300 33900 37600 41900 42700 58000 82900 101000 157000 185000
2021-04-08 13:30 17.03 83300 186000 (2017) 33700 (2003) 73300 33900 37600 41900 42700 58000 82900 101000 157000 185000
2021-04-08 12:30 16.98 82900 186000 (2017) 33700 (2003) 73300 33900 37600 41900 42700 58000 82900 101000 157000 185000
2021-04-08 11:30 16.93 82500 186000 (2017) 33700 (2003) 73300 33900 37600 41900 42700 58000 82900 101000 157000 185000
2021-04-08 10:30 16.86 81900 186000 (2017) 33700 (2003) 73300 33900 37600 41900 42700 58000 82900 101000 157000 185000
2021-04-08 09:30 16.80 81400 186000 (2017) 33700 (2003) 73300 33900 37600 41900 42700 58000 82900 101000 157000 185000
2021-04-08 08:30 16.75 81000 186000 (2017) 33700 (2003) 73300 33900 37600 41900 42700 58000 82900 101000 157000 185000
2021-04-08 07:30 16.66 80200 186000 (2017) 33700 (2003) 73300 33900 37600 41900 42700 58000 82900 101000 157000 185000
2021-04-08 06:30 16.61 79800 186000 (2017) 33700 (2003) 73300 33900 37600 41900 42700 58000 82900 101000 157000 185000
2021-04-08 05:30 16.54 79300 186000 (2017) 33700 (2003) 73300 33900 37600 41900 42700 58000 82900 101000 157000 185000
2021-04-08 04:30 16.49 78900 186000 (2017) 33700 (2003) 73300 33900 37600 41900 42700 58000 82900 101000 157000 185000
2021-04-08 03:30 16.41 78200 186000 (2017) 33700 (2003) 73300 33900 37600 41900 42700 58000 82900 101000 157000 185000
2021-04-08 02:30 16.39 78000 186000 (2017) 33700 (2003) 73300 33900 37600 41900 42700 58000 82900 101000 157000 185000
2021-04-08 01:30 16.36 77800 186000 (2017) 33700 (2003) 73300 33900 37600 41900 42700 58000 82900 101000 157000 185000
2021-04-08 00:30 16.32 77500 186000 (2017) 33700 (2003) 73300 33900 37600 41900 42700 58000 82900 101000 157000 185000
2021-04-07 23:30 16.28 77200 197000 (2017) 33500 (2003) 74200 33700 38000 41300 44100 58600 84500 104000 158000 195000
2021-04-07 22:30 16.24 76900 197000 (2017) 33500 (2003) 74200 33700 38000 41300 44100 58600 84500 104000 158000 195000
2021-04-07 21:30 16.22 76700 197000 (2017) 33500 (2003) 74200 33700 38000 41300 44100 58600 84500 104000 158000 195000
2021-04-07 19:30 16.10 75800 197000 (2017) 33500 (2003) 74200 33700 38000 41300 44100 58600 84500 104000 158000 195000
2021-04-07 18:30 16.05 75400 197000 (2017) 33500 (2003) 74200 33700 38000 41300 44100 58600 84500 104000 158000 195000
2021-04-07 17:30 16.04 75300 197000 (2017) 33500 (2003) 74200 33700 38000 41300 44100 58600 84500 104000 158000 195000
2021-04-07 16:30 15.99 74900 197000 (2017) 33500 (2003) 74200 33700 38000 41300 44100 58600 84500 104000 158000 195000
2021-04-07 15:30 15.91 74300 197000 (2017) 33500 (2003) 74200 33700 38000 41300 44100 58600 84500 104000 158000 195000
2021-04-07 14:30 15.90 73900 197000 (2017) 33500 (2003) 74200 33700 38000 41300 44100 58600 84500 104000 158000 195000
2021-04-07 13:30 15.90 73900 197000 (2017) 33500 (2003) 74200 33700 38000 41300 44100 58600 84500 104000 158000 195000
2021-04-07 12:30 15.93 74100 197000 (2017) 33500 (2003) 74200 33700 38000 41300 44100 58600 84500 104000 158000 195000
2021-04-07 11:30 15.93 74100 197000 (2017) 33500 (2003) 74200 33700 38000 41300 44100 58600 84500 104000 158000 195000
2021-04-07 10:30 15.93 74100 197000 (2017) 33500 (2003) 74200 33700 38000 41300 44100 58600 84500 104000 158000 195000
2021-04-07 09:30 15.95 74300 197000 (2017) 33500 (2003) 74200 33700 38000 41300 44100 58600 84500 104000 158000 195000
2021-04-07 08:30 16.01 74800 197000 (2017) 33500 (2003) 74200 33700 38000 41300 44100 58600 84500 104000 158000 195000
2021-04-07 07:30 16.02 74800 197000 (2017) 33500 (2003) 74200 33700 38000 41300 44100 58600 84500 104000 158000 195000
2021-04-07 06:30 16.04 75000 197000 (2017) 33500 (2003) 74200 33700 38000 41300 44100 58600 84500 104000 158000 195000
2021-04-07 05:30 15.99 74600 197000 (2017) 33500 (2003) 74200 33700 38000 41300 44100 58600 84500 104000 158000 195000
2021-04-07 04:30 15.95 74300 197000 (2017) 33500 (2003) 74200 33700 38000 41300 44100 58600 84500 104000 158000 195000
2021-04-07 03:30 15.95 74300 197000 (2017) 33500 (2003) 74200 33700 38000 41300 44100 58600 84500 104000 158000 195000
2021-04-07 02:30 16.00 74700 197000 (2017) 33500 (2003) 74200 33700 38000 41300 44100 58600 84500 104000 158000 195000
2021-04-07 01:30 16.00 74700 197000 (2017) 33500 (2003) 74200 33700 38000 41300 44100 58600 84500 104000 158000 195000
2021-04-07 00:30 16.03 74900 197000 (2017) 33500 (2003) 74200 33700 38000 41300 44100 58600 84500 104000 158000 195000

A total of 94 rows are displayed for years 2001 through 2020.